createdAt,value
2018-06-13T00:01:22.250Z,16.40
2018-06-13T00:03:49.811Z,15.90
2018-06-13T00:06:17.275Z,16.20
2018-06-13T00:08:44.752Z,16.30
2018-06-13T00:11:12.314Z,16.00
2018-06-13T00:13:39.775Z,16.30
2018-06-13T00:16:07.331Z,16.20
2018-06-13T00:18:34.909Z,15.90
2018-06-13T00:21:02.465Z,16.00
2018-06-13T00:23:29.961Z,16.10
2018-06-13T00:25:58.224Z,16.10
2018-06-13T00:28:25.708Z,16.10
2018-06-13T00:30:53.914Z,15.90
2018-06-13T00:33:21.408Z,15.90
2018-06-13T00:35:48.965Z,15.90
2018-06-13T00:38:17.313Z,15.80
2018-06-13T00:40:44.818Z,15.90
2018-06-13T00:43:12.380Z,15.90
2018-06-13T00:45:39.940Z,16.00
2018-06-13T00:48:07.390Z,15.90
2018-06-13T00:50:34.911Z,15.70
2018-06-13T00:53:02.302Z,15.80
2018-06-13T00:55:29.791Z,15.70
2018-06-13T00:57:57.246Z,15.70
2018-06-13T01:00:24.710Z,15.60
2018-06-13T01:02:52.283Z,15.70
2018-06-13T01:05:19.744Z,15.50
2018-06-13T01:07:47.205Z,15.70
2018-06-13T01:10:14.660Z,15.80
2018-06-13T01:12:42.114Z,15.70
2018-06-13T01:15:09.584Z,15.70
2018-06-13T01:17:37.032Z,15.80
2018-06-13T01:20:04.521Z,15.90
2018-06-13T01:22:32.077Z,15.60
2018-06-13T01:24:59.531Z,15.90
2018-06-13T01:27:27.008Z,16.10
2018-06-13T01:29:54.467Z,16.30
2018-06-13T01:32:21.947Z,16.20
2018-06-13T01:34:49.408Z,16.20
2018-06-13T01:37:16.956Z,16.00
2018-06-13T01:39:44.420Z,16.20
2018-06-13T01:42:11.872Z,16.10
2018-06-13T01:44:39.325Z,16.10
2018-06-13T01:47:06.786Z,15.80
2018-06-13T01:49:34.254Z,15.90
2018-06-13T01:52:01.707Z,16.00
2018-06-13T01:54:29.179Z,15.80
2018-06-13T01:56:56.651Z,15.50
2018-06-13T01:59:24.209Z,15.60
2018-06-13T02:01:51.774Z,15.60
2018-06-13T02:04:19.225Z,15.40
2018-06-13T02:06:46.722Z,15.40
2018-06-13T02:09:14.151Z,15.60
2018-06-13T02:11:41.620Z,15.80
2018-06-13T02:14:09.084Z,15.70
2018-06-13T02:16:36.555Z,16.00
2018-06-13T02:19:04.020Z,15.80
2018-06-13T02:21:31.481Z,15.70
2018-06-13T02:23:59.041Z,15.50
2018-06-13T02:26:26.515Z,15.50
2018-06-13T02:28:53.990Z,15.50
2018-06-13T02:31:22.215Z,15.80
2018-06-13T02:33:49.707Z,15.80
2018-06-13T02:36:17.185Z,15.50
2018-06-13T02:38:45.403Z,15.80
2018-06-13T02:41:12.896Z,15.70
2018-06-13T02:43:40.462Z,15.50
2018-06-13T02:46:07.917Z,15.40
2018-06-13T02:48:35.381Z,15.50
2018-06-13T02:51:02.857Z,15.40
2018-06-13T02:53:30.323Z,15.40
2018-06-13T02:55:57.783Z,15.50
2018-06-13T02:58:26.029Z,15.50
2018-06-13T03:00:53.501Z,15.50
2018-06-13T03:03:20.986Z,15.60
2018-06-13T03:05:48.447Z,15.60
2018-06-13T03:08:15.998Z,15.70
2018-06-13T03:10:43.463Z,15.60
2018-06-13T03:13:11.040Z,15.50
2018-06-13T03:15:38.605Z,15.40
2018-06-13T03:18:06.069Z,15.40
2018-06-13T03:20:33.601Z,15.40
2018-06-13T03:23:01.094Z,15.50
2018-06-13T03:25:28.558Z,15.40
2018-06-13T03:27:56.028Z,15.40
2018-06-13T03:30:23.484Z,15.10
2018-06-13T03:32:51.035Z,15.20
2018-06-13T03:35:18.492Z,15.10
2018-06-13T03:37:45.951Z,15.30
2018-06-13T03:40:13.410Z,15.20
2018-06-13T03:42:40.867Z,15.20
2018-06-13T03:45:08.339Z,15.30
2018-06-13T03:47:35.900Z,15.30
2018-06-13T03:50:03.366Z,15.40
2018-06-13T03:52:31.509Z,15.30
2018-06-13T03:54:59.023Z,15.30
2018-06-13T03:57:26.587Z,15.30
2018-06-13T03:59:54.047Z,15.20
2018-06-13T04:02:21.626Z,15.30
2018-06-13T04:04:49.161Z,15.40
2018-06-13T04:07:16.942Z,15.40
2018-06-13T04:09:44.375Z,15.40
2018-06-13T04:12:11.831Z,15.40
2018-06-13T04:14:39.294Z,15.40
2018-06-13T04:17:06.752Z,15.30
2018-06-13T04:19:34.219Z,15.40
2018-06-13T04:22:01.672Z,15.40
2018-06-13T04:24:29.129Z,15.30
2018-06-13T04:26:56.627Z,15.30
2018-06-13T04:29:24.188Z,15.30
2018-06-13T04:31:51.769Z,15.30
2018-06-13T04:34:19.319Z,15.40
2018-06-13T04:36:46.898Z,15.20
2018-06-13T04:39:14.456Z,15.30
2018-06-13T04:41:41.933Z,15.40
2018-06-13T04:44:10.157Z,15.40
2018-06-13T04:46:37.620Z,15.40
2018-06-13T04:49:05.164Z,15.50
2018-06-13T04:51:32.650Z,15.50
2018-06-13T04:54:00.111Z,15.30
2018-06-13T04:56:27.575Z,15.30
2018-06-13T04:58:55.721Z,15.30
2018-06-13T05:01:23.235Z,15.50
2018-06-13T05:03:50.804Z,15.30
2018-06-13T05:06:18.335Z,15.30
2018-06-13T05:08:45.800Z,15.30
2018-06-13T05:11:13.265Z,15.40
2018-06-13T05:13:40.714Z,15.30
2018-06-13T05:16:08.213Z,15.30
2018-06-13T05:18:35.693Z,15.20
2018-06-13T05:21:03.158Z,15.10
2018-06-13T05:23:30.627Z,15.20
2018-06-13T05:25:58.167Z,15.30
2018-06-13T05:28:25.734Z,15.30
2018-06-13T05:30:53.291Z,15.10
2018-06-13T05:33:20.760Z,15.20
2018-06-13T05:35:48.313Z,15.10
2018-06-13T05:38:15.779Z,15.30
2018-06-13T05:40:43.348Z,15.40
2018-06-13T05:43:10.907Z,15.40
2018-06-13T05:45:38.475Z,15.40
2018-06-13T05:48:06.035Z,15.40
2018-06-13T05:50:33.602Z,15.30
2018-06-13T05:53:01.064Z,15.30
2018-06-13T05:55:28.629Z,15.30
2018-06-13T05:57:56.188Z,15.40
2018-06-13T06:00:23.655Z,15.30
2018-06-13T06:02:51.112Z,15.20
2018-06-13T06:05:18.652Z,15.30
2018-06-13T06:07:46.099Z,15.40
2018-06-13T06:10:13.618Z,15.50
2018-06-13T06:12:41.026Z,15.50
2018-06-13T06:15:08.528Z,15.50
2018-06-13T06:17:36.000Z,15.40
2018-06-13T06:20:04.260Z,15.30
2018-06-13T06:22:31.722Z,15.30
2018-06-13T06:24:59.192Z,15.30
2018-06-13T06:27:26.645Z,15.40
2018-06-13T06:29:54.117Z,15.40
2018-06-13T06:32:21.578Z,15.30
2018-06-13T06:34:49.036Z,15.40
2018-06-13T06:37:16.511Z,15.50
2018-06-13T06:39:43.969Z,15.40
2018-06-13T06:42:11.466Z,15.30
2018-06-13T06:44:38.895Z,15.40
2018-06-13T06:47:06.364Z,15.20
2018-06-13T06:49:33.856Z,15.30
2018-06-13T06:52:01.291Z,15.30
2018-06-13T06:54:28.903Z,15.20
2018-06-13T06:56:56.407Z,15.20
2018-06-13T06:59:23.897Z,15.30
2018-06-13T07:01:52.120Z,15.20
2018-06-13T07:04:19.583Z,15.20
2018-06-13T07:06:48.033Z,15.30
2018-06-13T07:09:16.280Z,15.30
2018-06-13T07:11:45.275Z,15.30
2018-06-13T07:14:12.735Z,15.30
2018-06-13T07:16:41.009Z,15.30
2018-06-13T07:19:08.575Z,15.30
2018-06-13T07:21:36.031Z,15.40
2018-06-13T07:24:03.499Z,15.30
2018-06-13T07:26:31.062Z,15.30
2018-06-13T07:28:58.514Z,15.20
2018-06-13T07:31:25.981Z,15.30
2018-06-13T07:33:53.448Z,15.30
2018-06-13T07:36:20.913Z,15.30
2018-06-13T07:38:48.372Z,15.10
2018-06-13T07:41:15.840Z,15.10
2018-06-13T07:43:43.307Z,15.20
2018-06-13T07:46:10.811Z,15.30
2018-06-13T07:48:38.326Z,15.40
2018-06-13T07:51:05.886Z,15.30
2018-06-13T07:53:33.345Z,15.40
2018-06-13T07:56:00.907Z,15.40
2018-06-13T07:58:28.471Z,15.50
2018-06-13T08:00:55.931Z,15.50
2018-06-13T08:03:23.508Z,15.50
2018-06-13T08:05:51.740Z,15.70
2018-06-13T08:08:19.217Z,15.60
2018-06-13T08:10:46.664Z,15.70
2018-06-13T08:13:14.130Z,15.70
2018-06-13T08:15:41.592Z,15.80
2018-06-13T08:18:09.110Z,15.70
2018-06-13T08:20:37.326Z,15.80
2018-06-13T08:23:04.807Z,15.70
2018-06-13T08:25:32.300Z,15.90
2018-06-13T08:27:59.747Z,15.90
2018-06-13T08:30:27.212Z,15.90
2018-06-13T08:32:54.769Z,15.80
2018-06-13T08:35:22.228Z,15.80
2018-06-13T08:37:49.688Z,15.70
2018-06-13T08:40:17.135Z,15.70
2018-06-13T08:42:44.619Z,15.80
2018-06-13T08:45:12.097Z,15.80
2018-06-13T08:47:39.552Z,15.80
2018-06-13T08:50:07.120Z,15.70
2018-06-13T08:52:34.583Z,15.80
2018-06-13T08:55:02.049Z,16.00
2018-06-13T08:57:31.024Z,16.00
2018-06-13T08:59:58.594Z,16.00
2018-06-13T09:02:26.168Z,15.90
2018-06-13T09:04:53.724Z,15.80
2018-06-13T09:07:21.183Z,15.80
2018-06-13T09:09:48.749Z,15.80
2018-06-13T09:12:16.336Z,15.70
2018-06-13T09:14:43.874Z,15.60
2018-06-13T09:17:11.337Z,15.80
2018-06-13T09:19:39.715Z,15.90
2018-06-13T09:22:07.147Z,15.80
2018-06-13T09:24:34.631Z,15.80
2018-06-13T09:27:02.123Z,15.70
2018-06-13T09:29:31.088Z,15.80
2018-06-13T09:31:58.560Z,15.70
2018-06-13T09:34:26.080Z,15.90
2018-06-13T09:36:54.425Z,16.50
2018-06-13T09:39:21.888Z,16.50
2018-06-13T09:41:49.367Z,16.50
2018-06-13T09:44:16.828Z,16.50
2018-06-13T09:46:48.919Z,16.40
2018-06-13T09:49:12.520Z,16.40
2018-06-13T09:51:39.996Z,16.20
2018-06-13T09:54:07.472Z,16.20
2018-06-13T09:56:34.923Z,16.20
2018-06-13T09:59:02.396Z,16.20
2018-06-13T10:01:29.863Z,16.20
2018-06-13T10:03:57.325Z,16.10
2018-06-13T10:06:24.887Z,16.00
2018-06-13T10:08:52.357Z,16.00
2018-06-13T10:11:19.842Z,16.10
2018-06-13T10:13:47.271Z,16.10
2018-06-13T10:16:14.759Z,16.10
2018-06-13T10:18:42.287Z,16.20
2018-06-13T10:21:10.456Z,16.20
2018-06-13T10:23:37.920Z,16.20
2018-06-13T10:26:06.754Z,16.10
2018-06-13T10:31:07.338Z,16.00
2018-06-13T10:33:34.815Z,16.10
2018-06-13T10:36:02.284Z,16.40
2018-06-13T10:38:29.758Z,16.40
2018-06-13T10:40:57.238Z,16.50
2018-06-13T10:43:25.464Z,16.50
2018-06-13T10:45:52.973Z,16.40
2018-06-13T10:48:20.442Z,16.60
2018-06-13T10:50:48.004Z,16.60
2018-06-13T10:53:16.260Z,16.50
2018-06-13T10:55:43.718Z,16.50
2018-06-13T10:58:11.255Z,16.50
2018-06-13T11:00:38.735Z,16.60
2018-06-13T11:03:06.487Z,16.60
2018-06-13T11:05:33.948Z,16.60
2018-06-13T11:08:01.423Z,16.50
2018-06-13T11:10:28.896Z,16.60
2018-06-13T11:12:56.349Z,16.60
2018-06-13T11:15:23.850Z,16.60
2018-06-13T11:17:51.300Z,16.70
2018-06-13T11:20:18.934Z,16.90
2018-06-13T11:22:47.133Z,17.00
2018-06-13T11:25:14.665Z,17.00
2018-06-13T11:27:42.874Z,17.40
2018-06-13T11:30:10.500Z,17.30
2018-06-13T11:32:37.936Z,17.40
2018-06-13T11:35:06.160Z,17.50
2018-06-13T11:37:34.339Z,17.40
2018-06-13T11:40:01.840Z,17.40
2018-06-13T11:42:29.405Z,17.30
2018-06-13T11:44:56.972Z,17.30
2018-06-13T11:47:24.447Z,17.40
2018-06-13T11:49:51.910Z,17.50
2018-06-13T11:52:19.448Z,17.50
2018-06-13T11:54:46.915Z,17.70
2018-06-13T11:57:14.479Z,17.90
2018-06-13T11:59:42.044Z,18.00
2018-06-13T12:02:09.496Z,18.00
2018-06-13T12:04:36.969Z,17.90
2018-06-13T12:07:04.544Z,17.80
2018-06-13T12:09:32.775Z,17.80
2018-06-13T12:12:00.242Z,17.80
2018-06-13T12:14:27.702Z,17.90
2018-06-13T12:16:55.208Z,17.80
2018-06-13T12:19:22.663Z,17.80
2018-06-13T12:21:50.129Z,17.90
2018-06-13T12:24:17.683Z,17.90
2018-06-13T12:26:45.965Z,18.00
2018-06-13T12:29:13.430Z,18.00
2018-06-13T12:31:42.419Z,18.10
2018-06-13T12:34:10.001Z,18.10
2018-06-13T12:36:37.462Z,18.20
2018-06-13T12:39:04.927Z,18.00
2018-06-13T12:41:32.394Z,18.00
2018-06-13T12:44:02.446Z,18.10
2018-06-13T12:46:30.671Z,18.70
2018-06-13T12:48:58.134Z,18.60
2018-06-13T12:51:25.592Z,18.70
2018-06-13T12:53:53.079Z,18.70
2018-06-13T12:56:20.537Z,18.50
2018-06-13T12:58:48.140Z,18.70
2018-06-13T13:01:15.552Z,18.80
2018-06-13T13:03:43.045Z,18.80
2018-06-13T13:06:11.251Z,19.00
2018-06-13T13:08:38.738Z,19.00
2018-06-13T13:11:06.249Z,19.10
2018-06-13T13:13:33.678Z,19.20
2018-06-13T13:16:01.149Z,19.20
2018-06-13T13:18:28.622Z,19.30
2018-06-13T13:20:56.085Z,19.20
2018-06-13T13:23:23.548Z,19.30
2018-06-13T13:25:51.779Z,19.40
2018-06-13T13:28:19.253Z,19.40
2018-06-13T13:30:46.836Z,19.50
2018-06-13T13:33:14.296Z,19.50
2018-06-13T13:35:41.808Z,19.60
2018-06-13T13:38:10.018Z,19.70
2018-06-13T13:40:37.503Z,19.60
2018-06-13T13:43:04.972Z,19.70
2018-06-13T13:45:32.568Z,19.70
2018-06-13T13:48:01.010Z,19.90
2018-06-13T13:50:28.573Z,19.90
2018-06-13T13:52:56.047Z,19.90
2018-06-13T13:55:24.005Z,19.90
2018-06-13T13:57:51.471Z,19.90
2018-06-13T14:00:19.080Z,20.00
2018-06-13T14:02:46.534Z,20.10
2018-06-13T14:05:14.788Z,20.00
2018-06-13T14:07:42.258Z,20.00
2018-06-13T14:10:09.710Z,20.30
2018-06-13T14:12:37.184Z,20.40
2018-06-13T14:15:05.413Z,20.30
2018-06-13T14:17:32.914Z,20.30
2018-06-13T14:20:00.379Z,20.40
2018-06-13T14:22:28.119Z,20.60
2018-06-13T14:24:55.407Z,20.70
2018-06-13T14:27:22.865Z,20.80
2018-06-13T14:29:50.331Z,20.60
2018-06-13T14:32:17.837Z,20.60
2018-06-13T14:34:45.353Z,20.60
2018-06-13T14:37:12.865Z,20.70
2018-06-13T14:39:41.084Z,20.70
2018-06-13T14:42:08.555Z,20.60
2018-06-13T14:44:36.015Z,20.90
2018-06-13T14:47:03.481Z,20.70
2018-06-13T14:49:30.949Z,20.60
2018-06-13T14:51:58.419Z,20.80
2018-06-13T14:54:26.649Z,21.00
2018-06-13T14:56:54.591Z,21.00
2018-06-13T14:59:22.032Z,21.10
2018-06-13T15:01:49.487Z,21.10
2018-06-13T15:04:18.481Z,21.30
2018-06-13T15:06:46.041Z,21.30
2018-06-13T15:09:13.597Z,21.00
2018-06-13T15:11:41.056Z,21.00
2018-06-13T15:14:08.626Z,20.90
2018-06-13T15:16:36.189Z,21.20
2018-06-13T15:19:03.689Z,21.60
2018-06-13T15:21:31.157Z,21.70
2018-06-13T15:23:59.384Z,21.10
2018-06-13T15:26:26.841Z,21.10
2018-06-13T15:28:54.303Z,21.40
2018-06-13T15:31:21.756Z,21.30
2018-06-13T15:33:49.234Z,21.30
2018-06-13T15:36:16.704Z,21.40
2018-06-13T15:38:44.171Z,21.60
2018-06-13T15:41:11.640Z,21.60
2018-06-13T15:43:39.091Z,21.70
2018-06-13T15:46:06.563Z,21.60
2018-06-13T15:48:34.042Z,21.50
2018-06-13T15:51:02.263Z,21.60
2018-06-13T15:53:29.724Z,21.60
2018-06-13T15:55:57.210Z,21.50
2018-06-13T15:58:24.774Z,21.50
2018-06-13T16:00:52.241Z,21.10
2018-06-13T16:03:20.070Z,21.70
2018-06-13T16:05:47.539Z,21.50
2018-06-13T16:08:15.040Z,21.90
2018-06-13T16:10:42.504Z,21.70
2018-06-13T16:13:10.072Z,21.80
2018-06-13T16:15:37.539Z,22.00
2018-06-13T16:18:05.084Z,21.90
2018-06-13T16:20:32.552Z,22.00
2018-06-13T16:23:00.020Z,21.60
2018-06-13T16:25:27.491Z,21.70
2018-06-13T16:27:54.963Z,22.00
2018-06-13T16:30:23.221Z,21.60
2018-06-13T16:32:50.690Z,21.60
2018-06-13T16:35:18.263Z,21.70
2018-06-13T16:37:45.812Z,21.60
2018-06-13T16:40:13.263Z,21.80
2018-06-13T16:42:40.731Z,21.80
2018-06-13T16:45:08.187Z,22.00
2018-06-13T16:47:35.647Z,22.00
2018-06-13T16:50:03.131Z,22.10
2018-06-13T16:52:42.564Z,22.10
2018-06-13T16:55:12.842Z,21.90
2018-06-13T16:57:40.323Z,21.30
2018-06-13T17:00:07.789Z,21.20
2018-06-13T17:02:35.269Z,21.60
2018-06-13T17:05:02.737Z,21.30
2018-06-13T17:07:30.199Z,21.50
2018-06-13T17:09:57.686Z,21.50
2018-06-13T17:12:25.915Z,21.60
2018-06-13T17:14:53.408Z,21.60
2018-06-13T17:17:20.896Z,20.80
2018-06-13T17:19:49.141Z,21.50
2018-06-13T17:22:16.711Z,21.50
2018-06-13T17:24:44.173Z,21.40
2018-06-13T17:27:12.408Z,20.90
2018-06-13T17:29:39.967Z,20.90
2018-06-13T17:32:07.472Z,20.60
2018-06-13T17:34:34.923Z,20.80
2018-06-13T17:37:02.408Z,20.90
2018-06-13T17:39:30.665Z,21.10
2018-06-13T17:41:58.094Z,21.10
2018-06-13T17:44:25.612Z,21.00
2018-06-13T17:46:53.163Z,21.50
2018-06-13T17:49:20.727Z,21.70
2018-06-13T17:51:48.207Z,21.60
2018-06-13T17:54:16.448Z,21.30
2018-06-13T17:56:43.911Z,21.30
2018-06-13T17:59:11.401Z,21.10
2018-06-13T18:01:38.860Z,20.80
2018-06-13T18:04:06.328Z,21.00
2018-06-13T18:06:33.776Z,20.80
2018-06-13T18:09:01.243Z,20.60
2018-06-13T18:11:28.704Z,21.10
2018-06-13T18:13:56.153Z,20.90
2018-06-13T18:16:23.741Z,20.90
2018-06-13T18:18:51.197Z,20.70
2018-06-13T18:21:19.129Z,21.10
2018-06-13T18:23:46.592Z,21.20
2018-06-13T18:26:14.093Z,21.20
2018-06-13T18:28:41.568Z,20.90
2018-06-13T18:31:09.788Z,21.40
2018-06-13T18:33:37.304Z,21.40
2018-06-13T18:36:04.760Z,21.30
2018-06-13T18:38:32.321Z,21.20
2018-06-13T18:40:59.790Z,21.30
2018-06-13T18:43:27.351Z,21.30
2018-06-13T18:45:54.803Z,21.20
2018-06-13T18:48:22.381Z,21.10
2018-06-13T18:50:49.826Z,21.30
2018-06-13T18:53:17.291Z,21.60
2018-06-13T18:55:44.859Z,21.30
2018-06-13T18:58:12.426Z,21.10
2018-06-13T19:00:39.996Z,21.10
2018-06-13T19:03:07.452Z,21.10
2018-06-13T19:05:34.917Z,20.80
2018-06-13T19:08:02.381Z,20.80
2018-06-13T19:10:29.840Z,21.00
2018-06-13T19:12:57.395Z,20.70
2018-06-13T19:15:24.868Z,20.70
2018-06-13T19:17:52.311Z,20.80
2018-06-13T19:20:19.888Z,20.90
2018-06-13T19:22:47.373Z,20.90
2018-06-13T19:25:15.615Z,20.50
2018-06-13T19:27:43.777Z,20.50
2018-06-13T19:30:11.277Z,20.50
2018-06-13T19:32:38.836Z,20.70
2018-06-13T19:35:06.311Z,20.70
2018-06-13T19:37:33.776Z,20.80
2018-06-13T19:40:01.301Z,20.90
2018-06-13T19:42:29.510Z,20.70
2018-06-13T19:44:57.006Z,20.60
2018-06-13T19:47:24.441Z,20.50
2018-06-13T19:49:53.404Z,20.60
2018-06-13T19:52:20.910Z,20.50
2018-06-13T19:55:03.247Z,20.10
2018-06-13T19:57:30.733Z,20.10
2018-06-13T19:59:58.192Z,20.00
2018-06-13T20:02:25.647Z,19.80
2018-06-13T20:04:58.967Z,19.90
2018-06-13T20:07:26.424Z,19.90
2018-06-13T20:09:54.005Z,19.80
2018-06-13T20:12:21.463Z,19.60
2018-06-13T20:15:08.759Z,19.80
2018-06-13T20:17:54.042Z,19.80
2018-06-13T20:20:21.501Z,19.90
2018-06-13T20:22:49.072Z,19.90
2018-06-13T20:25:16.615Z,20.00
2018-06-13T20:28:00.796Z,20.00
2018-06-13T20:30:34.732Z,19.80
2018-06-13T20:33:02.209Z,19.90
2018-06-13T20:35:29.766Z,19.90
2018-06-13T20:37:57.277Z,20.10
2018-06-13T20:40:24.720Z,20.00
2018-06-13T20:42:53.030Z,19.50
2018-06-13T20:45:20.493Z,19.50
2018-06-13T20:47:47.955Z,19.50
2018-06-13T20:50:15.515Z,19.30
2018-06-13T20:52:42.985Z,19.40
2018-06-13T20:55:11.223Z,19.20
2018-06-13T20:57:38.692Z,19.20
2018-06-13T21:00:06.163Z,19.30
2018-06-13T21:02:33.616Z,19.40
2018-06-13T21:05:01.083Z,19.40
2018-06-13T21:07:28.543Z,19.50
2018-06-13T21:09:56.027Z,19.60
2018-06-13T21:12:23.602Z,19.50
2018-06-13T21:14:51.159Z,19.30
2018-06-13T21:17:18.630Z,19.40
2018-06-13T21:19:46.888Z,19.20
2018-06-13T21:22:14.361Z,19.20
2018-06-13T21:24:41.802Z,18.90
2018-06-13T21:27:09.269Z,18.80
2018-06-13T21:29:36.715Z,18.80
2018-06-13T21:32:04.195Z,19.20
2018-06-13T21:34:31.665Z,19.10
2018-06-13T21:36:59.237Z,19.00
2018-06-13T21:39:26.709Z,19.10
2018-06-13T21:41:54.972Z,18.80
2018-06-13T21:44:23.977Z,18.80
2018-06-13T21:46:52.945Z,18.90
2018-06-13T21:49:20.410Z,18.90
2018-06-13T21:51:47.898Z,18.90
2018-06-13T21:54:15.450Z,18.90
2018-06-13T21:56:42.914Z,18.80
2018-06-13T21:59:10.368Z,18.80
2018-06-13T22:01:37.931Z,18.90
2018-06-13T22:04:05.411Z,19.00
2018-06-13T22:06:32.880Z,19.10
2018-06-13T22:09:01.868Z,19.00
2018-06-13T22:11:29.333Z,19.00
2018-06-13T22:13:56.796Z,18.80
2018-06-13T22:16:24.257Z,19.00
2018-06-13T22:18:51.712Z,18.70
2018-06-13T22:21:19.979Z,18.80
2018-06-13T22:23:47.594Z,18.70
2018-06-13T22:26:15.043Z,18.70
2018-06-13T22:28:43.273Z,18.50
2018-06-13T22:31:10.747Z,18.50
2018-06-13T22:33:38.218Z,18.50
2018-06-13T22:36:07.068Z,18.70
2018-06-13T22:38:34.571Z,18.50
2018-06-13T22:41:02.028Z,18.50
2018-06-13T22:43:29.491Z,18.50
2018-06-13T22:45:56.942Z,18.70
2018-06-13T22:48:24.525Z,18.40
2018-06-13T22:50:51.979Z,18.40
2018-06-13T22:53:19.456Z,18.50
2018-06-13T22:55:46.918Z,18.50
2018-06-13T22:58:14.373Z,18.60
2018-06-13T23:00:41.936Z,18.50
2018-06-13T23:03:09.405Z,18.10
2018-06-13T23:05:36.862Z,18.20
2018-06-13T23:08:04.322Z,18.20
2018-06-13T23:10:31.799Z,18.30
2018-06-13T23:12:59.341Z,18.40
2018-06-13T23:15:26.799Z,18.30
2018-06-13T23:17:54.279Z,18.20
2018-06-13T23:20:21.831Z,17.90
2018-06-13T23:22:49.292Z,17.80
2018-06-13T23:25:16.872Z,17.80
2018-06-13T23:27:44.332Z,17.80
2018-06-13T23:30:11.791Z,17.90
2018-06-13T23:32:39.351Z,18.10
2018-06-13T23:35:06.802Z,18.10
2018-06-13T23:37:36.407Z,18.00
2018-06-13T23:40:03.855Z,18.20
2018-06-13T23:42:31.339Z,18.20
2018-06-13T23:44:58.796Z,18.10
2018-06-13T23:47:26.266Z,18.10
2018-06-13T23:49:53.836Z,18.20
2018-06-13T23:52:21.304Z,18.00
2018-06-13T23:54:48.764Z,18.00
2018-06-13T23:57:16.231Z,17.90
2018-06-13T23:59:43.710Z,17.50
